Time;durP1;ratioP1;P1;durP2;ratioP2;P2;SDS_P1;SDS_P2;PMS_P1;PMS_P2;Temp;Humidity;BMP_temperature;BMP_pressure;BME280_temperature;BME280_humidity;BME280_pressure;Samples;Min_cycle;Max_cycle;Signal;HPM_P1;HPM_P2
2022/08/13 00:00:32;;;;;;;5.22;3.13;;;;;;;19.97;51.83;101556.59;5089584;28;20020;-68
2022/08/13 00:02:59;;;;;;;7.63;3.22;;;;;;;19.93;52.20;101558.34;5089393;28;20073;-68
2022/08/13 00:05:25;;;;;;;4.78;3.05;;;;;;;19.91;52.49;101558.31;5089359;28;20024;-68
2022/08/13 00:07:51;;;;;;;5.38;3.25;;;;;;;19.86;52.33;101565.28;5089432;28;20016;-68
2022/08/13 00:10:36;;;;;;;4.93;3.40;;;;;;;19.86;52.38;101570.56;5088951;28;20073;-68
2022/08/13 00:13:03;;;;;;;3.78;3.17;;;;;;;19.80;53.15;101560.03;5089023;28;20024;-68
2022/08/13 00:15:31;;;;;;;4.13;3.72;;;;;;;19.75;53.04;101570.50;5088691;28;20053;-68
2022/08/13 00:17:59;;;;;;;4.45;3.30;;;;;;;19.73;53.53;101568.75;5075691;28;20020;-68
2022/08/13 00:20:28;;;;;;;6.53;3.45;;;;;;;19.70;52.95;101555.59;5089654;28;20100;-68
2022/08/13 00:22:55;;;;;;;4.03;3.15;;;;;;;19.70;53.51;101566.09;5075380;28;20032;-68
2022/08/13 00:25:21;;;;;;;5.05;3.42;;;;;;;19.67;53.37;101565.22;5088952;28;20126;-68
2022/08/13 00:27:56;;;;;;;3.40;3.08;;;;;;;19.62;53.92;101568.69;5087633;28;20142;-68
2022/08/13 00:30:30;;;;;;;6.45;2.83;;;;;;;19.58;53.75;101559.91;5089323;28;20028;-69
2022/08/13 00:32:57;;;;;;;4.95;3.28;;;;;;;19.54;54.22;101566.00;5088816;28;20024;-68
2022/08/13 00:35:23;;;;;;;4.97;3.05;;;;;;;19.48;54.04;101565.97;5088560;28;20028;-68
2022/08/13 00:37:48;;;;;;;7.03;3.38;;;;;;;19.43;54.41;101561.56;5088596;28;20032;-68
2022/08/13 00:40:17;;;;;;;4.85;3.22;;;;;;;19.40;54.69;101563.28;5070136;28;20048;-68
2022/08/13 00:42:43;;;;;;;4.53;3.40;;;;;;;19.37;55.09;101566.78;5089323;28;20062;-68
2022/08/13 00:45:09;;;;;;;4.40;2.83;;;;;;;19.32;55.46;101566.75;5088282;28;20141;-68
2022/08/13 00:50:20;;;;;;;3.53;3.15;;;;;;;19.20;55.39;101572.81;5088004;28;20403;-68
2022/08/13 00:52:45;;;;;;;6.20;3.20;;;;;;;19.16;56.09;101572.75;5088608;28;20117;-68
2022/08/13 00:55:18;;;;;;;3.03;2.72;;;;;;;19.11;57.34;101574.44;5087389;28;20044;-68
2022/08/13 00:57:45;;;;;;;4.53;3.20;;;;;;;19.06;58.43;101571.78;5077020;28;20047;-68
2022/08/13 01:00:16;;;;;;;3.60;2.58;;;;;;;18.98;58.97;101573.47;5088175;28;20024;-68
2022/08/13 01:02:44;;;;;;;3.95;3.05;;;;;;;18.91;59.21;101567.25;5087822;28;20031;-68
2022/08/13 01:05:09;;;;;;;5.47;3.20;;;;;;;18.82;59.57;101578.56;5088293;28;20445;-68
2022/08/13 01:07:41;;;;;;;3.92;3.28;;;;;;;18.79;59.65;101573.28;5087812;28;20020;-67
2022/08/13 01:10:10;;;;;;;4.40;3.05;;;;;;;18.76;58.98;101578.53;5087979;28;20024;-68
2022/08/13 01:12:37;;;;;;;4.95;3.47;;;;;;;18.69;58.46;101567.94;5087915;28;20030;-67
2022/08/13 01:15:07;;;;;;;6.22;3.67;;;;;;;18.66;57.92;101575.81;5088414;28;20576;-68
2022/08/13 01:17:35;;;;;;;6.15;3.78;;;;;;;18.63;58.23;101565.28;5087708;28;20027;-68
2022/08/13 01:20:02;;;;;;;5.68;3.10;;;;;;;18.57;58.36;101567.81;5088090;28;20036;-68
2022/08/13 01:22:29;;;;;;;3.58;3.28;;;;;;;18.53;58.57;101571.31;5087176;28;20097;-67
2022/08/13 01:24:55;;;;;;;9.55;3.67;;;;;;;18.50;58.69;101572.13;5087647;28;20024;-68
2022/08/13 01:27:21;;;;;;;4.57;3.42;;;;;;;18.45;58.20;101566.84;5088227;28;20016;-68
2022/08/13 01:29:48;;;;;;;5.38;3.72;;;;;;;18.43;58.37;101570.31;5087663;28;20024;-68
2022/08/13 01:32:16;;;;;;;3.88;3.05;;;;;;;18.42;58.74;101573.81;5087817;28;20028;-68
2022/08/13 01:34:45;;;;;;;8.20;3.60;;;;;;;18.41;58.89;101570.31;5087513;28;20486;-68
2022/08/13 01:37:12;;;;;;;3.20;2.90;;;;;;;18.38;59.10;101572.91;5087068;28;20035;-68
2022/08/13 01:39:38;;;;;;;3.90;3.47;;;;;;;18.35;58.95;101578.09;5085849;28;20035;-68
2022/08/13 01:42:04;;;;;;;3.42;3.13;;;;;;;18.30;59.55;101574.53;5086709;28;20416;-68
2022/08/13 01:44:31;;;;;;;3.67;3.38;;;;;;;18.27;59.38;101574.50;5087167;28;20093;-67
2022/08/13 01:52:34;;;;;;;6.38;3.58;;;;;;;18.18;59.43;101564.78;5086908;28;20062;-68
2022/08/13 01:55:04;;;;;;;6.32;3.50;;;;;;;18.16;59.61;101569.13;5087210;28;20058;-68
2022/08/13 01:57:32;;;;;;;3.95;3.17;;;;;;;18.13;60.13;101572.59;5067762;28;20175;-67
2022/08/13 01:59:57;;;;;;;4.65;3.42;;;;;;;18.11;59.68;101566.44;5079647;28;20031;-67
2022/08/13 02:02:25;;;;;;;4.07;3.47;;;;;;;18.06;59.83;101568.13;5087605;28;20023;-67
2022/08/13 02:04:50;;;;;;;3.95;3.50;;;;;;;18.00;60.06;101566.31;5071304;28;20028;-67
2022/08/13 02:07:17;;;;;;;4.28;2.90;;;;;;;17.94;60.43;101574.97;5087132;28;20032;-68
2022/08/13 02:09:43;;;;;;;4.07;3.42;;;;;;;17.89;60.66;101571.41;5087344;28;20371;-68
2022/08/13 02:12:13;;;;;;;7.15;3.60;;;;;;;17.85;60.39;101564.34;5087354;28;20172;-68
2022/08/13 02:14:43;;;;;;;7.32;4.13;;;;;;;17.83;60.57;101563.44;5087284;28;20030;-67
2022/08/13 02:17:24;;;;;;;4.70;3.60;;;;;;;17.80;62.77;101566.03;5086970;28;20027;-68
2022/08/13 02:19:52;;;;;;;5.80;3.75;;;;;;;17.76;63.83;101567.72;5086512;28;20468;-67
2022/08/13 02:22:17;;;;;;;5.38;3.50;;;;;;;17.70;64.68;101568.53;5086846;28;20028;-67
2022/08/13 02:24:52;;;;;;;5.10;3.17;;;;;;;17.68;64.56;101567.66;5087302;28;20379;-67
2022/08/13 02:27:24;;;;;;;4.57;3.35;;;;;;;17.66;63.94;101568.47;5087541;28;20066;-68
2022/08/13 02:29:55;;;;;;;4.18;3.80;;;;;;;17.60;64.60;101566.63;5080315;28;20024;-68
2022/08/13 02:32:23;;;;;;;4.57;3.80;;;;;;;17.56;64.22;101564.84;5080652;28;20035;-68
2022/08/13 02:34:50;;;;;;;4.20;3.67;;;;;;;17.52;63.39;101570.03;5087094;28;20031;-68
2022/08/13 02:37:21;;;;;;;4.93;3.90;;;;;;;17.47;63.04;101571.69;5086682;28;20319;-68
2022/08/13 02:39:51;;;;;;;7.22;3.78;;;;;;;17.44;63.22;101570.78;5086782;28;20031;-68
2022/08/13 02:42:18;;;;;;;5.53;3.55;;;;;;;17.40;63.10;101575.97;5086956;28;20035;-68
2022/08/13 02:44:47;;;;;;;5.65;3.85;;;;;;;17.36;62.73;101568.06;5087462;28;20035;-68
2022/08/13 02:47:13;;;;;;;4.97;3.92;;;;;;;17.36;62.77;101573.28;5087399;28;20464;-68
2022/08/13 02:49:40;;;;;;;5.25;3.30;;;;;;;17.33;62.81;101567.97;5086274;28;20274;-68
2022/08/13 02:52:09;;;;;;;5.13;4.00;;;;;;;17.28;64.66;101560.97;5087512;28;20043;-68
2022/08/13 02:54:43;;;;;;;5.55;3.58;;;;;;;17.24;65.82;101564.38;5087162;28;20118;-68
2022/08/13 02:57:10;;;;;;;4.45;3.95;;;;;;;17.23;65.80;101562.63;5087023;28;20035;-68
2022/08/13 02:59:35;;;;;;;7.45;3.95;;;;;;;17.20;66.27;101569.56;5087544;28;20380;-68
2022/08/13 03:02:01;;;;;;;3.78;3.47;;;;;;;17.17;66.65;101573.00;5086596;28;20026;-68
2022/08/13 03:04:27;;;;;;;4.45;3.22;;;;;;;17.13;67.52;101568.56;5087093;28;20063;-68
2022/08/13 03:06:52;;;;;;;4.30;3.85;;;;;;;17.10;67.15;101571.09;5087417;28;20493;-68
2022/08/13 03:09:20;;;;;;;5.78;3.85;;;;;;;17.09;66.70;101569.34;5086955;28;20027;-68
2022/08/13 03:11:50;;;;;;;5.45;3.35;;;;;;;17.06;65.95;101572.78;5086642;28;20028;-68
2022/08/13 03:14:16;;;;;;;7.00;3.78;;;;;;;17.03;64.36;101576.25;5086848;28;20024;-68
2022/08/13 03:16:42;;;;;;;6.47;3.78;;;;;;;17.01;64.65;101571.81;5086774;28;20024;-68
2022/08/13 03:19:07;;;;;;;7.63;4.43;;;;;;;16.98;64.05;101566.53;5086240;28;20028;-68
2022/08/13 03:21:41;;;;;;;5.50;3.90;;;;;;;16.95;63.91;101567.34;5087130;28;20169;-68
2022/08/13 03:24:08;;;;;;;5.32;3.97;;;;;;;16.93;64.38;101564.72;5086951;28;20106;-68
2022/08/13 03:26:34;;;;;;;4.95;3.97;;;;;;;16.90;64.46;101571.63;5087116;28;20039;-68
2022/08/13 03:29:01;;;;;;;7.10;4.20;;;;;;;16.90;64.43;101576.88;5086512;28;20028;-67
2022/08/13 03:31:30;;;;;;;4.75;4.28;;;;;;;16.89;64.64;101572.50;5087105;28;20038;-67
2022/08/13 03:34:01;;;;;;;5.38;3.90;;;;;;;16.86;65.10;101573.31;5086920;28;20672;-68
2022/08/13 03:36:28;;;;;;;4.55;4.13;;;;;;;16.85;64.21;101575.91;5086917;28;20100;-68
2022/08/13 03:38:53;;;;;;;4.80;4.30;;;;;;;16.84;64.68;101576.78;5087098;28;20035;-68
2022/08/13 03:41:18;;;;;;;5.72;4.50;;;;;;;16.82;64.73;101575.88;5086673;28;20480;-67
2022/08/13 03:43:47;;;;;;;5.75;4.60;;;;;;;16.82;64.98;101576.72;5085961;28;20035;-68
2022/08/13 03:46:14;;;;;;;6.32;4.03;;;;;;;16.79;64.60;101572.34;5086589;28;20028;-68
2022/08/13 03:48:40;;;;;;;5.00;4.53;;;;;;;16.77;64.71;101567.91;5086071;28;20660;-68
2022/08/13 03:51:06;;;;;;;5.70;5.03;;;;;;;16.72;65.33;101573.06;5086198;28;20106;-68
2022/08/13 03:53:33;;;;;;;6.90;4.40;;;;;;;16.70;65.26;101569.53;5086659;28;20464;-68
2022/08/13 03:55:59;;;;;;;5.18;4.72;;;;;;;16.68;65.79;101574.75;5086533;28;20472;-68
2022/08/13 03:58:26;;;;;;;4.97;4.35;;;;;;;16.67;65.59;101573.00;5086367;28;20354;-68
2022/08/13 04:00:52;;;;;;;6.57;4.55;;;;;;;16.61;67.03;101567.66;5068773;28;20376;-68
2022/08/13 04:03:20;;;;;;;8.30;4.80;;;;;;;16.58;67.88;101569.31;5088690;28;20024;-68
2022/08/13 04:05:52;;;;;;;4.30;3.95;;;;;;;16.52;67.99;101568.34;5090141;28;20375;-67
2022/08/13 04:08:18;;;;;;;7.03;4.25;;;;;;;16.47;69.25;101567.41;5090421;28;20035;-68
2022/08/13 04:10:44;;;;;;;5.97;4.10;;;;;;;16.45;69.12;101571.72;5088241;28;20384;-68
2022/08/13 04:13:11;;;;;;;6.60;4.10;;;;;;;16.44;69.53;101567.34;5088469;28;20023;-68
2022/08/13 04:15:37;;;;;;;5.15;4.63;;;;;;;16.40;69.43;101568.13;5086562;28;20085;-68
2022/08/13 04:18:02;;;;;;;4.60;4.00;;;;;;;16.38;69.56;101565.47;5075446;28;20024;-68
2022/08/13 04:20:27;;;;;;;7.13;4.57;;;;;;;16.36;70.00;101568.91;5088667;28;20380;-68
2022/08/13 04:22:54;;;;;;;7.55;4.93;;;;;;;16.30;70.37;101567.94;5087579;28;20556;-67
2022/08/13 04:25:19;;;;;;;5.55;4.05;;;;;;;16.29;70.53;101570.53;5088751;28;20066;-68
2022/08/13 04:27:45;;;;;;;4.80;4.30;;;;;;;16.26;70.67;101566.09;5089978;28;20380;-67
2022/08/13 04:30:11;;;;;;;6.68;4.80;;;;;;;16.23;70.89;101575.63;5089770;28;20024;-68
2022/08/13 04:32:43;;;;;;;5.70;4.63;;;;;;;16.19;71.12;101579.94;5089815;28;20102;-67
2022/08/13 04:35:09;;;;;;;4.75;4.20;;;;;;;16.16;71.47;101575.50;5071540;28;20073;-67
2022/08/13 04:37:36;;;;;;;5.18;4.30;;;;;;;16.15;72.08;101583.31;5089469;28;20027;-68
2022/08/13 04:40:04;;;;;;;5.22;4.80;;;;;;;16.13;72.29;101579.78;5089500;28;20031;-68
2022/08/13 04:42:46;;;;;;;5.20;4.65;;;;;;;16.12;72.16;101583.28;5089791;28;20024;-68
2022/08/13 04:45:13;;;;;;;7.15;5.05;;;;;;;16.14;71.99;101571.09;5088649;28;20761;-67
2022/08/13 04:47:42;;;;;;;6.40;4.40;;;;;;;16.14;72.17;101577.22;5089046;28;20376;-68
2022/08/13 04:50:10;;;;;;;7.93;4.60;;;;;;;16.13;72.50;101577.19;5088417;28;20375;-67
2022/08/13 04:52:35;;;;;;;6.30;4.40;;;;;;;16.12;72.51;101580.66;5077640;28;20027;-67
2022/08/13 04:55:02;;;;;;;5.28;4.78;;;;;;;16.11;72.68;101589.34;5089248;28;20020;-67
2022/08/13 04:57:28;;;;;;;5.95;5.38;;;;;;;16.11;72.92;101581.50;5088253;28;20019;-67
2022/08/13 04:59:54;;;;;;;5.40;4.90;;;;;;;16.12;73.01;101584.13;5087822;28;20054;-67
2022/08/13 05:02:21;;;;;;;7.38;4.75;;;;;;;16.16;72.55;101588.59;5088116;28;20012;-67
2022/08/13 05:04:46;;;;;;;5.82;4.63;;;;;;;16.19;72.62;101582.56;5088223;28;20020;-67
2022/08/13 05:07:11;;;;;;;9.55;5.80;;;;;;;16.23;72.22;101586.97;5088482;28;20020;-67
2022/08/13 05:09:37;;;;;;;4.82;4.32;;;;;;;16.29;71.79;101589.72;5088425;28;20016;-67
2022/08/13 05:12:02;;;;;;;6.40;4.35;;;;;;;16.37;71.75;101594.22;5088225;28;20024;-68
2022/08/13 05:14:28;;;;;;;5.78;4.65;;;;;;;16.41;72.35;101585.56;5088264;28;20028;-67
2022/08/13 05:16:53;;;;;;;7.65;5.38;;;;;;;16.45;70.01;101582.16;5087764;28;20415;-67
2022/08/13 05:19:19;;;;;;;7.22;5.00;;;;;;;16.54;69.42;101592.81;5088359;28;20032;-67
2022/08/13 05:21:44;;;;;;;7.65;4.50;;;;;;;16.61;68.59;101592.91;5088194;28;20092;-68
2022/08/13 05:24:09;;;;;;;12.00;5.20;;;;;;;16.71;68.78;101594.88;5087308;28;20065;-67
2022/08/13 05:26:34;;;;;;;7.45;4.72;;;;;;;16.78;68.16;101596.72;5087660;28;20024;-67
2022/08/13 05:29:07;;;;;;;8.15;4.57;;;;;;;16.85;67.30;101589.88;5088053;28;20220;-67
2022/08/13 05:31:35;;;;;;;5.68;4.53;;;;;;;16.96;67.38;101594.44;5087912;28;20408;-68
2022/08/13 05:34:03;;;;;;;7.30;4.88;;;;;;;17.03;67.26;101597.19;5088046;28;20028;-68
2022/08/13 05:36:30;;;;;;;7.03;4.82;;;;;;;17.13;67.60;101597.34;5087148;28;20074;-67
2022/08/13 05:38:58;;;;;;;6.53;4.90;;;;;;;17.20;67.18;101596.59;5087895;28;20073;-68
2022/08/13 05:41:25;;;;;;;7.93;4.60;;;;;;;17.28;67.63;101595.00;5087633;28;20493;-68
2022/08/13 05:43:52;;;;;;;5.30;4.60;;;;;;;17.37;67.07;101590.75;5087581;28;20024;-67
2022/08/13 05:46:18;;;;;;;5.63;4.38;;;;;;;17.48;66.90;101589.19;5087417;28;20031;-68
2022/08/13 05:48:56;;;;;;;7.13;4.90;;;;;;;17.59;66.57;101589.31;5087665;28;20070;-68
2022/08/13 05:51:28;;;;;;;5.68;4.50;;;;;;;17.71;66.68;101582.50;5087426;28;20028;-68
2022/08/13 05:53:55;;;;;;;6.95;4.93;;;;;;;17.82;66.62;101582.66;5087128;28;20046;-68
2022/08/13 05:56:24;;;;;;;4.72;4.22;;;;;;;17.94;65.12;101592.44;5087461;28;20031;-68
2022/08/13 05:58:51;;;;;;;6.70;4.68;;;;;;;18.05;65.35;101590.84;5086990;28;20050;-68
2022/08/13 06:04:02;;;;;;;7.63;4.93;;;;;;;18.34;64.97;101586.84;5087292;28;20074;-68
2022/08/13 06:06:30;;;;;;;6.57;4.50;;;;;;;18.48;64.07;101592.22;5087599;28;20034;-68
2022/08/13 06:08:59;;;;;;;9.50;4.40;;;;;;;18.65;63.67;101589.81;5086900;28;20527;-68
2022/08/13 06:11:25;;;;;;;4.97;4.47;;;;;;;18.80;62.51;101583.81;5085457;28;20639;-68
2022/08/13 06:13:50;;;;;;;6.53;4.43;;;;;;;18.98;62.01;101578.72;5087316;28;20035;-68
2022/08/13 06:16:17;;;;;;;7.30;4.55;;;;;;;19.16;62.09;101588.50;5087192;28;20106;-68
2022/08/13 06:18:44;;;;;;;5.15;4.60;;;;;;;19.27;61.29;101591.22;5087684;28;20016;-68
2022/08/13 06:21:12;;;;;;;6.47;3.90;;;;;;;19.42;60.95;101591.34;5087133;28;20028;-67
2022/08/13 06:23:39;;;;;;;5.07;4.03;;;;;;;19.62;60.36;101580.09;5086601;28;20078;-68
2022/08/13 06:26:06;;;;;;;6.13;4.20;;;;;;;19.81;59.83;101588.06;5072925;28;20020;-67
2022/08/13 06:28:33;;;;;;;5.07;4.55;;;;;;;20.01;59.21;101589.91;5065377;28;20050;-68
2022/08/13 06:31:01;;;;;;;6.30;4.22;;;;;;;20.16;58.69;101589.13;5078126;28;20031;-67
2022/08/13 06:33:29;;;;;;;4.28;3.88;;;;;;;20.36;58.54;101589.19;5078654;28;20054;-67
2022/08/13 06:35:55;;;;;;;5.28;4.47;;;;;;;20.48;57.96;101591.00;5060298;28;20491;-67
2022/08/13 06:38:26;;;;;;;6.82;4.38;;;;;;;20.65;57.33;101592.78;5079592;28;20112;-67
2022/08/13 06:40:54;;;;;;;4.20;3.80;;;;;;;20.77;56.33;101591.91;5068330;28;20459;-68
2022/08/13 06:43:20;;;;;;;4.32;3.92;;;;;;;20.91;55.40;101588.41;5084438;28;20111;-68
2022/08/13 06:45:46;;;;;;;7.40;3.78;;;;;;;21.07;54.95;101595.47;5085098;28;20416;-68
2022/08/13 06:48:12;;;;;;;7.68;3.95;;;;;;;21.23;54.49;101588.44;5072736;28;20016;-68
2022/08/13 06:50:37;;;;;;;4.22;3.83;;;;;;;21.37;54.63;101587.56;5084485;28;20418;-68
2022/08/13 06:53:08;;;;;;;4.63;2.80;;;;;;;21.55;54.18;101583.97;5084920;28;20181;-68
2022/08/13 06:55:39;;;;;;;4.97;2.80;;;;;;;21.69;53.63;101591.00;5084798;28;20138;-68
2022/08/13 06:58:08;;;;;;;6.60;3.17;;;;;;;21.83;53.49;101591.88;5069630;28;20020;-67
2022/08/13 07:00:35;;;;;;;5.28;3.72;;;;;;;21.98;52.73;101599.72;5080401;28;20438;-68
2022/08/13 07:03:02;;;;;;;5.68;3.60;;;;;;;22.13;51.96;101594.38;5085711;28;20368;-69
2022/08/13 07:05:32;;;;;;;4.15;3.50;;;;;;;22.26;51.37;101589.91;5077607;28;20124;-68
2022/08/13 07:07:58;;;;;;;3.90;3.30;;;;;;;22.35;51.63;101589.00;5086665;28;20103;-68
2022/08/13 07:10:24;;;;;;;3.58;3.22;;;;;;;22.46;50.97;101593.31;5086993;28;20269;-68
2022/08/13 07:12:49;;;;;;;4.53;3.58;;;;;;;22.61;50.59;101597.66;5067475;28;20438;-68
2022/08/13 07:15:15;;;;;;;6.57;3.50;;;;;;;22.78;50.86;101594.91;5085826;28;20430;-68
2022/08/13 07:17:42;;;;;;;4.25;3.17;;;;;;;22.96;50.29;101601.81;5086352;28;20055;-68
2022/08/13 07:20:09;;;;;;;6.05;3.97;;;;;;;23.18;50.39;101601.63;5087003;28;20028;-68
2022/08/13 07:22:35;;;;;;;3.88;3.50;;;;;;;23.39;49.37;101603.19;5086599;28;20028;-68
2022/08/13 07:25:00;;;;;;;4.30;3.42;;;;;;;23.63;48.68;101605.63;5086576;28;20111;-68
2022/08/13 07:27:26;;;;;;;3.65;3.10;;;;;;;23.85;47.74;101608.03;5086909;28;20058;-68
2022/08/13 07:29:53;;;;;;;5.22;3.42;;;;;;;24.08;47.43;101604.22;5086666;28;20023;-68
2022/08/13 07:32:19;;;;;;;4.10;2.78;;;;;;;24.29;47.09;101595.16;5086949;28;20491;-68
2022/08/13 07:34:45;;;;;;;5.38;2.95;;;;;;;24.54;47.00;101597.44;5086345;28;20418;-68
2022/08/13 07:37:18;;;;;;;3.88;2.72;;;;;;;24.73;46.51;101597.19;5089436;28;20028;-68
2022/08/13 07:39:44;;;;;;;4.57;2.70;;;;;;;24.94;45.80;101600.41;5090345;28;20020;-67
2022/08/13 07:42:10;;;;;;;4.68;2.90;;;;;;;25.20;45.29;101600.88;5090257;28;20090;-68
2022/08/13 07:44:36;;;;;;;4.40;2.60;;;;;;;25.44;44.55;101596.88;5089507;28;20496;-68
2022/08/13 07:47:01;;;;;;;3.63;2.78;;;;;;;25.66;44.03;101599.16;5089700;28;20027;-68
2022/08/13 07:49:27;;;;;;;2.95;2.60;;;;;;;25.93;44.22;101593.31;5089852;28;20024;-68
2022/08/13 07:51:53;;;;;;;3.05;1.80;;;;;;;26.07;41.86;101601.84;5090254;28;20066;-69
2022/08/13 07:54:18;;;;;;;6.07;2.10;;;;;;;26.23;40.58;101593.53;5090096;28;20111;-68
2022/08/13 07:56:47;;;;;;;2.25;1.58;;;;;;;26.42;40.22;101593.16;5090248;28;20127;-68
2022/08/13 07:59:18;;;;;;;2.20;1.58;;;;;;;26.72;38.79;101606.63;5089516;28;20131;-68
2022/08/13 08:01:46;;;;;;;3.40;1.73;;;;;;;26.96;38.00;101598.97;5090402;28;20425;-68
2022/08/13 08:04:14;;;;;;;2.42;1.60;;;;;;;27.26;38.55;101596.44;5090404;28;20471;-69
2022/08/13 08:06:41;;;;;;;4.53;1.60;;;;;;;27.55;38.73;101597.44;5089954;28;20032;-68
2022/08/13 08:09:08;;;;;;;2.92;1.80;;;;;;;27.85;37.57;101596.63;5089647;28;20020;-68
2022/08/13 08:14:19;;;;;;;3.33;1.45;;;;;;;28.34;35.30;101595.19;5089833;28;20046;-68
2022/08/13 08:16:44;;;;;;;3.83;1.52;;;;;;;28.48;35.97;101598.31;5089961;28;20020;-68
2022/08/13 08:19:13;;;;;;;4.30;1.38;;;;;;;28.61;34.33;101598.81;5090149;28;20655;-69
2022/08/13 08:21:40;;;;;;;4.45;2.00;;;;;;;28.70;34.05;101610.94;5090004;28;20020;-69
2022/08/13 08:24:06;;;;;;;4.28;1.42;;;;;;;28.77;33.97;101601.84;5089389;28;20099;-68
2022/08/13 08:26:33;;;;;;;2.08;1.55;;;;;;;29.03;33.82;101609.03;5075908;28;20016;-69
2022/08/13 08:29:03;;;;;;;6.88;1.65;;;;;;;29.13;33.54;101607.78;5089626;28;20028;-69
2022/08/13 08:31:29;;;;;;;1.67;1.50;;;;;;;29.35;33.02;101599.03;5089553;28;20081;-69
2022/08/13 08:33:57;;;;;;;3.22;1.50;;;;;;;29.57;32.88;101603.59;5090477;28;20050;-69
2022/08/13 08:36:23;;;;;;;3.42;1.45;;;;;;;29.63;32.13;101606.06;5089816;28;20031;-69
2022/08/13 08:44:23;;;;;;;7.68;1.67;;;;;;;30.13;31.27;101600.66;5089421;28;20113;-68
2022/08/13 08:46:52;;;;;;;4.05;1.70;;;;;;;30.12;31.79;101601.56;5089561;28;20020;-69
2022/08/13 08:49:21;;;;;;;3.72;1.45;;;;;;;30.26;32.52;101601.09;5088675;28;20028;-69
2022/08/13 08:51:49;;;;;;;2.92;1.60;;;;;;;30.31;32.14;101604.44;5088813;28;20513;-69
2022/08/13 08:54:15;;;;;;;6.15;1.60;;;;;;;30.42;32.27;101594.16;5089283;28;20063;-69
2022/08/13 08:56:41;;;;;;;4.38;1.58;;;;;;;30.50;32.43;101609.03;5089033;28;20056;-68
2022/08/13 08:59:09;;;;;;;2.65;1.38;;;;;;;30.55;32.26;101601.69;5089547;28;20024;-69
2022/08/13 09:01:35;;;;;;;1.55;1.25;;;;;;;30.60;31.03;101605.03;5089025;28;20028;-69
2022/08/13 09:04:05;;;;;;;2.42;1.30;;;;;;;30.72;30.77;101597.44;5088726;28;20032;-68
2022/08/13 09:06:31;;;;;;;3.05;1.50;;;;;;;30.88;30.31;101598.56;5089327;28;20067;-68
2022/08/13 09:09:00;;;;;;;4.07;1.30;;;;;;;31.00;30.32;101604.31;5088886;28;20035;-68
2022/08/13 09:11:29;;;;;;;3.85;1.38;;;;;;;30.92;30.00;101592.13;5088860;28;20055;-68
2022/08/13 09:13:55;;;;;;;3.53;1.70;;;;;;;30.94;30.96;101591.22;5088918;28;20208;-68
2022/08/13 09:16:20;;;;;;;1.77;1.05;;;;;;;30.91;30.93;101595.75;5088755;28;20024;-68
2022/08/13 09:18:47;;;;;;;1.45;1.25;;;;;;;31.01;30.38;101593.59;5089024;28;20052;-69
2022/08/13 09:21:13;;;;;;;3.20;1.33;;;;;;;31.19;30.38;101587.47;5089069;28;20051;-68
2022/08/13 09:23:45;;;;;;;4.18;1.30;;;;;;;31.22;30.25;101584.66;5088804;28;20020;-69
2022/08/13 09:26:11;;;;;;;4.63;1.58;;;;;;;30.89;29.94;101591.41;5088418;28;20095;-68
2022/08/13 09:28:37;;;;;;;3.60;1.42;;;;;;;31.01;30.09;101590.03;5089088;28;20440;-69
2022/08/13 09:31:02;;;;;;;3.05;1.45;;;;;;;31.16;30.10;101591.16;5087856;28;20024;-68
2022/08/13 09:33:28;;;;;;;4.57;1.45;;;;;;;30.91;30.13;101590.41;5088700;28;20043;-69
2022/08/13 09:35:54;;;;;;;2.60;1.52;;;;;;;30.98;30.97;101582.16;5088510;28;20255;-69
2022/08/13 09:38:21;;;;;;;1.60;1.30;;;;;;;31.14;30.82;101587.69;5088824;28;20016;-69
2022/08/13 09:40:59;;;;;;;3.70;1.38;;;;;;;31.28;29.74;101579.03;5087879;28;20126;-69
2022/08/13 09:43:36;;;;;;;2.72;1.40;;;;;;;31.24;30.17;101583.66;5088359;28;20024;-69
2022/08/13 09:46:04;;;;;;;3.20;1.20;;;;;;;31.38;29.85;101585.72;5088313;28;20032;-68
2022/08/13 09:48:30;;;;;;;2.53;1.20;;;;;;;31.56;29.80;101583.16;5079569;28;20028;-69
2022/08/13 09:50:55;;;;;;;4.22;1.20;;;;;;;31.59;28.62;101582.19;5087611;28;20032;-68
2022/08/13 09:53:25;;;;;;;4.63;1.17;;;;;;;31.72;29.08;101571.75;5088339;28;20059;-68
2022/08/13 09:55:52;;;;;;;4.40;1.02;;;;;;;31.77;28.76;101574.22;5088183;28;20458;-69
2022/08/13 09:58:18;;;;;;;2.78;1.20;;;;;;;31.84;28.62;101567.66;5088507;28;20114;-68
2022/08/13 10:00:45;;;;;;;2.75;1.33;;;;;;;31.91;28.78;101570.88;5087276;28;20741;-68
2022/08/13 10:03:12;;;;;;;2.90;0.98;;;;;;;31.68;27.91;101571.00;5087964;28;20027;-69
2022/08/13 10:05:38;;;;;;;2.03;1.00;;;;;;;31.91;28.84;101560.19;5087476;28;20016;-69
2022/08/13 10:08:13;;;;;;;2.08;1.05;;;;;;;32.06;27.59;101556.78;5088426;28;20028;-69
2022/08/13 10:10:39;;;;;;;1.55;1.10;;;;;;;32.23;27.44;101560.47;5088197;28;20055;-68
2022/08/13 10:13:04;;;;;;;3.45;1.00;;;;;;;32.29;27.27;101551.25;5088097;28;20024;-69
2022/08/13 10:15:30;;;;;;;1.98;0.90;;;;;;;32.43;27.29;101553.25;5087642;28;20019;-69
2022/08/13 10:17:58;;;;;;;1.42;0.88;;;;;;;32.40;27.59;101554.25;5087755;28;20031;-69
2022/08/13 10:20:25;;;;;;;2.42;1.30;;;;;;;32.16;26.71;101550.97;5087688;28;20612;-69
2022/08/13 10:22:53;;;;;;;2.22;1.17;;;;;;;32.17;27.28;101552.72;5087365;28;20046;-69
2022/08/13 10:25:19;;;;;;;2.08;1.00;;;;;;;32.39;27.25;101551.66;5087409;28;20051;-69
2022/08/13 10:27:48;;;;;;;0.82;0.82;;;;;;;32.45;25.41;101543.31;5087580;28;20024;-69
2022/08/13 10:30:14;;;;;;;3.35;0.90;;;;;;;32.40;26.61;101551.56;5087626;28;20484;-69
2022/08/13 10:32:40;;;;;;;2.58;1.13;;;;;;;32.53;27.08;101546.47;5085745;28;20032;-68
2022/08/13 10:35:06;;;;;;;1.80;0.90;;;;;;;32.65;26.14;101546.81;5075736;28;20028;-69
2022/08/13 10:37:34;;;;;;;1.30;0.88;;;;;;;32.73;24.18;101549.97;5087396;28;20035;-69
2022/08/13 10:39:59;;;;;;;4.95;1.20;;;;;;;32.86;24.18;101547.53;5087333;28;20146;-69
2022/08/13 10:42:25;;;;;;;3.50;0.80;;;;;;;32.86;25.05;101542.16;5086113;28;20102;-69
2022/08/13 10:44:52;;;;;;;2.05;0.70;;;;;;;32.97;24.95;101544.28;5087118;28;20404;-68
2022/08/13 10:47:24;;;;;;;0.88;0.70;;;;;;;32.93;24.21;101542.69;5087262;28;20278;-69
2022/08/13 10:49:51;;;;;;;2.35;0.60;;;;;;;32.98;24.13;101537.97;5087194;28;20472;-69
2022/08/13 10:52:20;;;;;;;1.65;0.77;;;;;;;32.89;24.63;101538.44;5087674;28;20020;-69
2022/08/13 10:54:47;;;;;;;0.60;0.60;;;;;;;32.99;24.67;101538.84;5087338;28;20530;-69
2022/08/13 10:57:13;;;;;;;2.05;0.80;;;;;;;33.07;24.83;101534.78;5087029;28;20035;-69
2022/08/13 10:59:45;;;;;;;0.73;0.70;;;;;;;33.30;25.00;101530.03;5086761;28;20028;-69
2022/08/13 11:02:12;;;;;;;0.60;0.60;;;;;;;33.07;23.69;101524.06;5087342;28;20039;-69
2022/08/13 11:04:38;;;;;;;1.75;0.70;;;;;;;32.86;23.95;101528.75;5087159;28;20474;-69
2022/08/13 11:07:05;;;;;;;2.15;0.70;;;;;;;32.58;24.45;101536.41;5086179;28;20383;-69
2022/08/13 11:09:30;;;;;;;0.88;0.70;;;;;;;32.46;24.35;101526.28;5075177;28;20035;-69
2022/08/13 11:12:00;;;;;;;1.80;0.60;;;;;;;32.39;23.70;101530.19;5089068;28;20020;-68
2022/08/13 11:14:29;;;;;;;2.05;0.63;;;;;;;32.53;24.35;101529.50;5091308;28;20024;-69
2022/08/13 11:16:58;;;;;;;0.80;0.60;;;;;;;32.80;25.05;101529.94;5091071;28;20511;-68
2022/08/13 11:19:27;;;;;;;0.77;0.77;;;;;;;32.91;23.86;101532.06;5091281;28;20052;-68
2022/08/13 11:21:53;;;;;;;0.90;0.80;;;;;;;33.03;23.77;101522.47;5091173;28;20031;-69
2022/08/13 11:24:19;;;;;;;2.17;0.70;;;;;;;33.13;22.75;101527.41;5091050;28;20379;-68
2022/08/13 11:26:45;;;;;;;1.40;0.70;;;;;;;33.03;23.22;101521.63;5090774;28;20550;-69
2022/08/13 11:29:11;;;;;;;3.33;1.02;;;;;;;33.05;22.97;101507.16;5091282;28;20099;-69
2022/08/13 11:31:37;;;;;;;1.52;0.80;;;;;;;33.12;23.46;101512.25;5090703;28;20027;-69
2022/08/13 11:34:02;;;;;;;0.70;0.70;;;;;;;33.22;23.36;101507.25;5091156;28;20581;-70
2022/08/13 11:36:28;;;;;;;2.35;0.90;;;;;;;33.19;23.47;101502.94;5090962;28;20068;-69
2022/08/13 11:38:53;;;;;;;3.00;0.85;;;;;;;33.40;23.30;101503.56;5090550;28;20023;-70
2022/08/13 11:41:18;;;;;;;0.85;0.82;;;;;;;33.34;23.47;101492.28;5089989;28;20135;-70
2022/08/13 11:43:44;;;;;;;1.10;1.00;;;;;;;33.49;23.64;101495.94;5076838;28;20020;-70